sensor_id;sensor_type;location;lat;lon;timestamp;P1;durP1;ratioP1;P2;durP2;ratioP2
27833;SDS011;15200;50.570;7.244;2023-06-26T00:00:10;7.15;;;5.47;;
27833;SDS011;15200;50.570;7.244;2023-06-26T00:02:38;14.93;;;5.62;;
27833;SDS011;15200;50.570;7.244;2023-06-26T00:05:05;7.40;;;6.35;;
27833;SDS011;15200;50.570;7.244;2023-06-26T00:07:32;7.42;;;6.28;;
27833;SDS011;15200;50.570;7.244;2023-06-26T00:10:03;7.72;;;5.62;;
27833;SDS011;15200;50.570;7.244;2023-06-26T00:12:31;7.42;;;6.10;;
27833;SDS011;15200;50.570;7.244;2023-06-26T00:14:58;7.17;;;5.92;;
27833;SDS011;15200;50.570;7.244;2023-06-26T00:17:26;9.33;;;6.20;;
27833;SDS011;15200;50.570;7.244;2023-06-26T00:19:53;6.47;;;5.78;;
27833;SDS011;15200;50.570;7.244;2023-06-26T00:22:20;6.05;;;5.37;;
27833;SDS011;15200;50.570;7.244;2023-06-26T00:24:48;7.78;;;6.37;;
27833;SDS011;15200;50.570;7.244;2023-06-26T00:27:15;7.62;;;5.90;;
27833;SDS011;15200;50.570;7.244;2023-06-26T00:29:43;6.40;;;5.80;;
27833;SDS011;15200;50.570;7.244;2023-06-26T00:32:10;6.33;;;5.65;;
27833;SDS011;15200;50.570;7.244;2023-06-26T00:34:37;7.55;;;5.55;;
27833;SDS011;15200;50.570;7.244;2023-06-26T00:37:05;6.55;;;5.87;;
27833;SDS011;15200;50.570;7.244;2023-06-26T00:39:32;7.05;;;6.33;;
27833;SDS011;15200;50.570;7.244;2023-06-26T00:41:59;6.42;;;5.70;;
27833;SDS011;15200;50.570;7.244;2023-06-26T00:44:27;6.58;;;5.50;;
27833;SDS011;15200;50.570;7.244;2023-06-26T00:46:54;7.78;;;6.00;;
27833;SDS011;15200;50.570;7.244;2023-06-26T00:49:21;10.15;;;6.05;;
27833;SDS011;15200;50.570;7.244;2023-06-26T00:51:49;9.85;;;5.97;;
27833;SDS011;15200;50.570;7.244;2023-06-26T00:54:16;6.78;;;6.00;;
27833;SDS011;15200;50.570;7.244;2023-06-26T00:56:46;7.00;;;5.28;;
27833;SDS011;15200;50.570;7.244;2023-06-26T00:59:13;6.75;;;5.83;;
27833;SDS011;15200;50.570;7.244;2023-06-26T01:01:41;7.15;;;5.90;;
27833;SDS011;15200;50.570;7.244;2023-06-26T01:04:08;6.40;;;5.62;;
27833;SDS011;15200;50.570;7.244;2023-06-26T01:06:37;7.72;;;6.22;;
27833;SDS011;15200;50.570;7.244;2023-06-26T01:09:04;6.53;;;5.72;;
27833;SDS011;15200;50.570;7.244;2023-06-26T01:11:32;6.92;;;5.72;;
27833;SDS011;15200;50.570;7.244;2023-06-26T01:13:59;10.45;;;5.65;;
27833;SDS011;15200;50.570;7.244;2023-06-26T01:16:27;6.45;;;5.85;;
27833;SDS011;15200;50.570;7.244;2023-06-26T01:18:55;7.17;;;5.35;;
27833;SDS011;15200;50.570;7.244;2023-06-26T01:21:23;7.70;;;5.85;;
27833;SDS011;15200;50.570;7.244;2023-06-26T01:24:00;6.28;;;5.67;;
27833;SDS011;15200;50.570;7.244;2023-06-26T01:26:29;8.95;;;6.17;;
27833;SDS011;15200;50.570;7.244;2023-06-26T01:28:57;6.45;;;5.45;;
27833;SDS011;15200;50.570;7.244;2023-06-26T01:31:26;6.10;;;5.50;;
27833;SDS011;15200;50.570;7.244;2023-06-26T01:33:53;6.85;;;5.70;;
27833;SDS011;15200;50.570;7.244;2023-06-26T01:36:21;6.40;;;5.80;;
27833;SDS011;15200;50.570;7.244;2023-06-26T01:38:49;6.37;;;5.78;;
27833;SDS011;15200;50.570;7.244;2023-06-26T01:41:17;8.45;;;6.45;;
27833;SDS011;15200;50.570;7.244;2023-06-26T01:46:35;6.85;;;6.15;;
27833;SDS011;15200;50.570;7.244;2023-06-26T01:49:12;7.03;;;6.25;;
27833;SDS011;15200;50.570;7.244;2023-06-26T01:51:41;9.03;;;6.30;;
27833;SDS011;15200;50.570;7.244;2023-06-26T01:54:08;7.65;;;6.10;;
27833;SDS011;15200;50.570;7.244;2023-06-26T01:56:36;7.35;;;5.92;;
27833;SDS011;15200;50.570;7.244;2023-06-26T01:59:04;6.58;;;5.30;;
27833;SDS011;15200;50.570;7.244;2023-06-26T02:01:32;6.42;;;5.83;;
27833;SDS011;15200;50.570;7.244;2023-06-26T02:04:00;9.50;;;5.33;;
27833;SDS011;15200;50.570;7.244;2023-06-26T02:06:27;7.37;;;6.37;;
27833;SDS011;15200;50.570;7.244;2023-06-26T02:08:54;7.58;;;5.47;;
27833;SDS011;15200;50.570;7.244;2023-06-26T02:11:23;6.33;;;5.65;;
27833;SDS011;15200;50.570;7.244;2023-06-26T02:13:50;7.33;;;5.95;;
27833;SDS011;15200;50.570;7.244;2023-06-26T02:16:17;6.95;;;6.08;;
27833;SDS011;15200;50.570;7.244;2023-06-26T02:18:45;6.50;;;5.83;;
27833;SDS011;15200;50.570;7.244;2023-06-26T02:21:13;7.78;;;5.37;;
27833;SDS011;15200;50.570;7.244;2023-06-26T02:23:40;7.15;;;5.45;;
27833;SDS011;15200;50.570;7.244;2023-06-26T02:26:07;7.15;;;6.40;;
27833;SDS011;15200;50.570;7.244;2023-06-26T02:28:34;7.97;;;6.22;;
27833;SDS011;15200;50.570;7.244;2023-06-26T02:31:02;7.92;;;5.78;;
27833;SDS011;15200;50.570;7.244;2023-06-26T02:33:29;7.33;;;5.83;;
27833;SDS011;15200;50.570;7.244;2023-06-26T02:35:56;7.58;;;6.10;;
27833;SDS011;15200;50.570;7.244;2023-06-26T02:38:24;8.90;;;5.90;;
27833;SDS011;15200;50.570;7.244;2023-06-26T02:40:51;6.92;;;6.00;;
27833;SDS011;15200;50.570;7.244;2023-06-26T02:43:18;8.08;;;5.80;;
27833;SDS011;15200;50.570;7.244;2023-06-26T02:45:46;6.62;;;5.70;;
27833;SDS011;15200;50.570;7.244;2023-06-26T02:48:13;8.68;;;6.20;;
27833;SDS011;15200;50.570;7.244;2023-06-26T02:50:40;8.53;;;6.00;;
27833;SDS011;15200;50.570;7.244;2023-06-26T02:53:08;11.38;;;6.20;;
27833;SDS011;15200;50.570;7.244;2023-06-26T02:55:35;6.85;;;6.10;;
27833;SDS011;15200;50.570;7.244;2023-06-26T02:58:02;7.03;;;5.87;;
27833;SDS011;15200;50.570;7.244;2023-06-26T03:00:30;8.00;;;5.62;;
27833;SDS011;15200;50.570;7.244;2023-06-26T03:02:57;11.80;;;6.75;;
27833;SDS011;15200;50.570;7.244;2023-06-26T03:05:24;6.55;;;5.85;;
27833;SDS011;15200;50.570;7.244;2023-06-26T03:07:51;7.83;;;5.78;;
27833;SDS011;15200;50.570;7.244;2023-06-26T03:10:19;11.38;;;6.00;;
27833;SDS011;15200;50.570;7.244;2023-06-26T03:12:46;8.15;;;6.45;;
27833;SDS011;15200;50.570;7.244;2023-06-26T03:15:13;6.90;;;6.05;;
27833;SDS011;15200;50.570;7.244;2023-06-26T03:17:41;7.95;;;6.53;;
27833;SDS011;15200;50.570;7.244;2023-06-26T03:20:08;6.20;;;5.60;;
27833;SDS011;15200;50.570;7.244;2023-06-26T03:22:37;7.17;;;5.55;;
27833;SDS011;15200;50.570;7.244;2023-06-26T03:25:04;7.55;;;6.15;;
27833;SDS011;15200;50.570;7.244;2023-06-26T03:27:31;9.75;;;6.33;;
27833;SDS011;15200;50.570;7.244;2023-06-26T03:29:59;9.25;;;6.62;;
27833;SDS011;15200;50.570;7.244;2023-06-26T03:32:26;8.45;;;6.28;;
27833;SDS011;15200;50.570;7.244;2023-06-26T03:34:53;8.10;;;6.00;;
27833;SDS011;15200;50.570;7.244;2023-06-26T03:37:21;8.45;;;5.78;;
27833;SDS011;15200;50.570;7.244;2023-06-26T03:39:48;6.90;;;5.85;;
27833;SDS011;15200;50.570;7.244;2023-06-26T03:42:15;7.47;;;5.80;;
27833;SDS011;15200;50.570;7.244;2023-06-26T03:44:43;9.00;;;6.33;;
27833;SDS011;15200;50.570;7.244;2023-06-26T03:47:10;7.12;;;5.85;;
27833;SDS011;15200;50.570;7.244;2023-06-26T03:49:37;7.00;;;5.50;;
27833;SDS011;15200;50.570;7.244;2023-06-26T03:52:05;7.30;;;5.70;;
27833;SDS011;15200;50.570;7.244;2023-06-26T03:54:32;6.37;;;5.78;;
27833;SDS011;15200;50.570;7.244;2023-06-26T03:57:00;6.22;;;5.60;;
27833;SDS011;15200;50.570;7.244;2023-06-26T03:59:27;5.95;;;5.25;;
27833;SDS011;15200;50.570;7.244;2023-06-26T04:01:54;9.20;;;6.10;;
27833;SDS011;15200;50.570;7.244;2023-06-26T04:04:22;6.53;;;5.62;;
27833;SDS011;15200;50.570;7.244;2023-06-26T04:06:50;9.45;;;5.85;;
27833;SDS011;15200;50.570;7.244;2023-06-26T04:09:17;6.72;;;5.85;;
27833;SDS011;15200;50.570;7.244;2023-06-26T04:11:45;7.97;;;5.60;;
27833;SDS011;15200;50.570;7.244;2023-06-26T04:14:13;8.73;;;5.62;;
27833;SDS011;15200;50.570;7.244;2023-06-26T04:16:40;7.28;;;5.65;;
27833;SDS011;15200;50.570;7.244;2023-06-26T04:19:07;8.18;;;5.60;;
27833;SDS011;15200;50.570;7.244;2023-06-26T04:21:36;7.08;;;5.95;;
27833;SDS011;15200;50.570;7.244;2023-06-26T04:24:03;7.37;;;5.47;;
27833;SDS011;15200;50.570;7.244;2023-06-26T04:26:31;11.70;;;5.80;;
27833;SDS011;15200;50.570;7.244;2023-06-26T04:28:58;10.82;;;5.72;;
27833;SDS011;15200;50.570;7.244;2023-06-26T04:31:25;6.75;;;5.78;;
27833;SDS011;15200;50.570;7.244;2023-06-26T04:33:53;8.48;;;6.78;;
27833;SDS011;15200;50.570;7.244;2023-06-26T04:36:21;8.50;;;6.12;;
27833;SDS011;15200;50.570;7.244;2023-06-26T04:38:48;9.48;;;6.30;;
27833;SDS011;15200;50.570;7.244;2023-06-26T04:41:16;9.63;;;6.40;;
27833;SDS011;15200;50.570;7.244;2023-06-26T04:43:43;10.05;;;5.50;;
27833;SDS011;15200;50.570;7.244;2023-06-26T04:46:10;8.38;;;6.00;;
27833;SDS011;15200;50.570;7.244;2023-06-26T04:48:38;8.95;;;5.92;;
27833;SDS011;15200;50.570;7.244;2023-06-26T04:51:05;9.03;;;6.05;;
27833;SDS011;15200;50.570;7.244;2023-06-26T04:53:32;8.78;;;6.33;;
27833;SDS011;15200;50.570;7.244;2023-06-26T04:55:59;9.00;;;6.45;;
27833;SDS011;15200;50.570;7.244;2023-06-26T04:58:27;8.23;;;6.47;;
27833;SDS011;15200;50.570;7.244;2023-06-26T05:00:54;8.70;;;6.03;;
27833;SDS011;15200;50.570;7.244;2023-06-26T05:03:21;7.53;;;6.05;;
27833;SDS011;15200;50.570;7.244;2023-06-26T05:05:49;8.40;;;6.33;;
27833;SDS011;15200;50.570;7.244;2023-06-26T05:08:23;6.80;;;6.00;;
27833;SDS011;15200;50.570;7.244;2023-06-26T05:10:52;6.20;;;5.60;;
27833;SDS011;15200;50.570;7.244;2023-06-26T05:13:21;7.53;;;6.00;;
27833;SDS011;15200;50.570;7.244;2023-06-26T05:15:48;8.95;;;6.00;;
27833;SDS011;15200;50.570;7.244;2023-06-26T05:18:16;8.95;;;6.00;;
27833;SDS011;15200;50.570;7.244;2023-06-26T05:20:43;8.58;;;6.05;;
27833;SDS011;15200;50.570;7.244;2023-06-26T05:23:11;9.48;;;5.28;;
27833;SDS011;15200;50.570;7.244;2023-06-26T05:25:39;10.43;;;5.60;;
27833;SDS011;15200;50.570;7.244;2023-06-26T05:28:07;7.33;;;6.08;;
27833;SDS011;15200;50.570;7.244;2023-06-26T05:30:36;8.95;;;5.90;;
27833;SDS011;15200;50.570;7.244;2023-06-26T05:33:03;6.15;;;5.55;;
27833;SDS011;15200;50.570;7.244;2023-06-26T05:35:32;8.10;;;5.72;;
27833;SDS011;15200;50.570;7.244;2023-06-26T05:38:00;8.23;;;5.58;;
27833;SDS011;15200;50.570;7.244;2023-06-26T05:40:28;7.03;;;5.97;;
27833;SDS011;15200;50.570;7.244;2023-06-26T05:42:56;7.70;;;5.78;;
27833;SDS011;15200;50.570;7.244;2023-06-26T05:45:23;7.95;;;5.67;;
27833;SDS011;15200;50.570;7.244;2023-06-26T05:47:50;8.25;;;5.22;;
27833;SDS011;15200;50.570;7.244;2023-06-26T05:50:17;7.37;;;5.80;;
27833;SDS011;15200;50.570;7.244;2023-06-26T05:52:46;8.30;;;5.33;;
27833;SDS011;15200;50.570;7.244;2023-06-26T05:55:13;8.68;;;5.28;;
27833;SDS011;15200;50.570;7.244;2023-06-26T05:57:41;7.60;;;5.67;;
27833;SDS011;15200;50.570;7.244;2023-06-26T06:00:08;6.03;;;5.33;;
27833;SDS011;15200;50.570;7.244;2023-06-26T06:02:37;6.75;;;4.97;;
27833;SDS011;15200;50.570;7.244;2023-06-26T06:05:04;8.28;;;6.05;;
27833;SDS011;15200;50.570;7.244;2023-06-26T06:07:32;7.58;;;5.42;;
27833;SDS011;15200;50.570;7.244;2023-06-26T06:10:00;6.60;;;5.83;;
27833;SDS011;15200;50.570;7.244;2023-06-26T06:12:28;7.55;;;5.78;;
27833;SDS011;15200;50.570;7.244;2023-06-26T06:14:55;6.92;;;5.33;;
27833;SDS011;15200;50.570;7.244;2023-06-26T06:17:23;6.72;;;5.12;;
27833;SDS011;15200;50.570;7.244;2023-06-26T06:19:50;6.80;;;5.50;;
27833;SDS011;15200;50.570;7.244;2023-06-26T06:22:18;6.20;;;5.42;;
27833;SDS011;15200;50.570;7.244;2023-06-26T06:24:45;6.42;;;5.28;;
27833;SDS011;15200;50.570;7.244;2023-06-26T06:27:12;6.80;;;5.28;;
27833;SDS011;15200;50.570;7.244;2023-06-26T06:29:40;7.50;;;5.50;;
27833;SDS011;15200;50.570;7.244;2023-06-26T06:32:08;9.18;;;5.53;;
27833;SDS011;15200;50.570;7.244;2023-06-26T06:34:37;5.47;;;4.80;;
27833;SDS011;15200;50.570;7.244;2023-06-26T06:37:04;8.85;;;5.50;;
27833;SDS011;15200;50.570;7.244;2023-06-26T06:39:31;6.08;;;5.05;;
27833;SDS011;15200;50.570;7.244;2023-06-26T06:41:59;6.95;;;4.92;;
27833;SDS011;15200;50.570;7.244;2023-06-26T06:44:26;7.12;;;5.08;;
27833;SDS011;15200;50.570;7.244;2023-06-26T06:46:53;7.12;;;4.92;;
27833;SDS011;15200;50.570;7.244;2023-06-26T06:49:20;4.90;;;4.33;;
27833;SDS011;15200;50.570;7.244;2023-06-26T06:51:48;5.47;;;4.55;;
27833;SDS011;15200;50.570;7.244;2023-06-26T06:54:16;8.70;;;4.53;;
27833;SDS011;15200;50.570;7.244;2023-06-26T06:56:43;6.92;;;4.25;;
27833;SDS011;15200;50.570;7.244;2023-06-26T06:59:10;5.85;;;4.17;;
27833;SDS011;15200;50.570;7.244;2023-06-26T07:01:38;6.83;;;4.40;;
27833;SDS011;15200;50.570;7.244;2023-06-26T07:04:06;8.98;;;4.12;;
27833;SDS011;15200;50.570;7.244;2023-06-26T07:06:33;3.98;;;3.60;;
27833;SDS011;15200;50.570;7.244;2023-06-26T07:09:00;4.28;;;3.30;;
27833;SDS011;15200;50.570;7.244;2023-06-26T07:11:29;10.20;;;4.00;;
27833;SDS011;15200;50.570;7.244;2023-06-26T07:13:56;3.92;;;3.12;;
27833;SDS011;15200;50.570;7.244;2023-06-26T07:16:23;8.28;;;3.58;;
27833;SDS011;15200;50.570;7.244;2023-06-26T07:18:50;5.25;;;3.20;;
27833;SDS011;15200;50.570;7.244;2023-06-26T07:21:18;5.55;;;3.22;;
27833;SDS011;15200;50.570;7.244;2023-06-26T07:23:45;6.35;;;3.80;;
27833;SDS011;15200;50.570;7.244;2023-06-26T07:26:14;7.42;;;3.37;;
27833;SDS011;15200;50.570;7.244;2023-06-26T07:28:42;7.40;;;3.58;;
27833;SDS011;15200;50.570;7.244;2023-06-26T07:31:09;6.22;;;3.75;;
27833;SDS011;15200;50.570;7.244;2023-06-26T07:33:36;9.88;;;3.50;;
27833;SDS011;15200;50.570;7.244;2023-06-26T07:36:04;4.58;;;3.33;;
27833;SDS011;15200;50.570;7.244;2023-06-26T07:38:33;6.28;;;3.60;;
27833;SDS011;15200;50.570;7.244;2023-06-26T07:41:00;5.35;;;3.30;;
27833;SDS011;15200;50.570;7.244;2023-06-26T07:43:27;9.83;;;3.65;;
27833;SDS011;15200;50.570;7.244;2023-06-26T07:45:54;12.80;;;3.52;;
27833;SDS011;15200;50.570;7.244;2023-06-26T07:48:24;7.87;;;4.22;;
27833;SDS011;15200;50.570;7.244;2023-06-26T07:50:52;5.87;;;3.52;;
27833;SDS011;15200;50.570;7.244;2023-06-26T07:53:20;7.72;;;3.92;;
27833;SDS011;15200;50.570;7.244;2023-06-26T07:55:47;8.73;;;3.98;;
27833;SDS011;15200;50.570;7.244;2023-06-26T07:58:14;7.60;;;3.60;;
27833;SDS011;15200;50.570;7.244;2023-06-26T08:00:42;9.53;;;4.12;;
27833;SDS011;15200;50.570;7.244;2023-06-26T08:03:09;9.03;;;3.77;;
27833;SDS011;15200;50.570;7.244;2023-06-26T08:05:36;6.53;;;3.42;;
27833;SDS011;15200;50.570;7.244;2023-06-26T08:08:04;8.70;;;3.65;;
27833;SDS011;15200;50.570;7.244;2023-06-26T08:10:33;6.92;;;3.80;;
27833;SDS011;15200;50.570;7.244;2023-06-26T08:13:01;10.38;;;3.83;;
27833;SDS011;15200;50.570;7.244;2023-06-26T08:15:28;5.83;;;4.03;;
27833;SDS011;15200;50.570;7.244;2023-06-26T08:17:55;5.95;;;4.17;;
27833;SDS011;15200;50.570;7.244;2023-06-26T08:20:23;6.90;;;3.98;;
27833;SDS011;15200;50.570;7.244;2023-06-26T08:22:50;14.05;;;4.62;;
27833;SDS011;15200;50.570;7.244;2023-06-26T08:25:18;11.95;;;4.22;;
27833;SDS011;15200;50.570;7.244;2023-06-26T08:27:46;5.50;;;4.03;;
27833;SDS011;15200;50.570;7.244;2023-06-26T08:30:14;5.85;;;4.00;;
27833;SDS011;15200;50.570;7.244;2023-06-26T08:32:41;238.35;;;22.00;;
27833;SDS011;15200;50.570;7.244;2023-06-26T08:35:09;6.80;;;3.95;;
27833;SDS011;15200;50.570;7.244;2023-06-26T08:37:36;7.17;;;3.65;;
27833;SDS011;15200;50.570;7.244;2023-06-26T08:40:04;7.83;;;4.08;;
27833;SDS011;15200;50.570;7.244;2023-06-26T08:42:31;10.03;;;4.83;;
27833;SDS011;15200;50.570;7.244;2023-06-26T08:44:58;10.50;;;4.40;;
27833;SDS011;15200;50.570;7.244;2023-06-26T08:47:26;9.68;;;3.87;;
27833;SDS011;15200;50.570;7.244;2023-06-26T08:50:15;6.70;;;3.92;;
27833;SDS011;15200;50.570;7.244;2023-06-26T08:52:22;5.35;;;3.70;;
27833;SDS011;15200;50.570;7.244;2023-06-26T08:54:52;4.83;;;3.60;;
27833;SDS011;15200;50.570;7.244;2023-06-26T08:57:19;5.53;;;3.85;;
27833;SDS011;15200;50.570;7.244;2023-06-26T08:59:47;6.78;;;3.80;;
27833;SDS011;15200;50.570;7.244;2023-06-26T09:02:15;7.87;;;4.03;;
27833;SDS011;15200;50.570;7.244;2023-06-26T09:04:42;7.53;;;3.72;;
27833;SDS011;15200;50.570;7.244;2023-06-26T09:07:09;6.60;;;3.35;;
27833;SDS011;15200;50.570;7.244;2023-06-26T09:09:37;5.83;;;3.00;;
27833;SDS011;15200;50.570;7.244;2023-06-26T09:12:04;7.60;;;3.65;;
27833;SDS011;15200;50.570;7.244;2023-06-26T09:14:32;7.47;;;3.25;;
27833;SDS011;15200;50.570;7.244;2023-06-26T09:16:59;9.05;;;3.75;;
27833;SDS011;15200;50.570;7.244;2023-06-26T09:19:26;4.58;;;3.25;;
27833;SDS011;15200;50.570;7.244;2023-06-26T09:21:53;9.08;;;2.95;;
27833;SDS011;15200;50.570;7.244;2023-06-26T09:24:21;7.58;;;3.52;;
27833;SDS011;15200;50.570;7.244;2023-06-26T09:26:49;10.48;;;3.55;;
27833;SDS011;15200;50.570;7.244;2023-06-26T09:29:16;8.48;;;2.90;;
27833;SDS011;15200;50.570;7.244;2023-06-26T09:31:44;8.43;;;3.22;;
27833;SDS011;15200;50.570;7.244;2023-06-26T09:34:11;5.00;;;2.98;;
27833;SDS011;15200;50.570;7.244;2023-06-26T09:36:38;10.05;;;3.17;;
27833;SDS011;15200;50.570;7.244;2023-06-26T09:39:08;6.15;;;3.10;;
27833;SDS011;15200;50.570;7.244;2023-06-26T09:41:38;10.75;;;3.37;;
27833;SDS011;15200;50.570;7.244;2023-06-26T09:44:06;6.22;;;2.85;;
27833;SDS011;15200;50.570;7.244;2023-06-26T09:46:34;5.50;;;2.40;;
27833;SDS011;15200;50.570;7.244;2023-06-26T09:49:02;9.93;;;3.25;;
27833;SDS011;15200;50.570;7.244;2023-06-26T09:51:34;8.78;;;3.20;;
27833;SDS011;15200;50.570;7.244;2023-06-26T09:54:02;5.80;;;2.60;;
27833;SDS011;15200;50.570;7.244;2023-06-26T09:56:30;5.37;;;3.00;;
27833;SDS011;15200;50.570;7.244;2023-06-26T09:58:59;4.03;;;2.27;;
27833;SDS011;15200;50.570;7.244;2023-06-26T10:01:27;5.42;;;2.27;;
27833;SDS011;15200;50.570;7.244;2023-06-26T10:03:54;5.40;;;2.20;;
27833;SDS011;15200;50.570;7.244;2023-06-26T10:06:36;4.42;;;2.08;;
27833;SDS011;15200;50.570;7.244;2023-06-26T10:08:59;5.30;;;2.33;;
27833;SDS011;15200;50.570;7.244;2023-06-26T10:11:31;4.78;;;2.20;;
27833;SDS011;15200;50.570;7.244;2023-06-26T10:13:56;2.75;;;1.60;;
27833;SDS011;15200;50.570;7.244;2023-06-26T10:16:25;5.45;;;2.45;;
27833;SDS011;15200;50.570;7.244;2023-06-26T10:18:53;5.70;;;2.02;;
27833;SDS011;15200;50.570;7.244;2023-06-26T10:21:21;4.70;;;2.17;;
27833;SDS011;15200;50.570;7.244;2023-06-26T10:23:49;4.53;;;2.10;;
27833;SDS011;15200;50.570;7.244;2023-06-26T10:26:18;4.33;;;2.40;;
27833;SDS011;15200;50.570;7.244;2023-06-26T10:28:47;4.53;;;2.20;;
27833;SDS011;15200;50.570;7.244;2023-06-26T10:31:16;5.08;;;2.00;;
27833;SDS011;15200;50.570;7.244;2023-06-26T10:33:45;5.47;;;1.92;;
27833;SDS011;15200;50.570;7.244;2023-06-26T10:36:13;7.37;;;1.92;;
27833;SDS011;15200;50.570;7.244;2023-06-26T10:38:48;4.20;;;1.90;;
27833;SDS011;15200;50.570;7.244;2023-06-26T10:41:15;5.30;;;1.82;;
27833;SDS011;15200;50.570;7.244;2023-06-26T10:43:45;4.60;;;2.20;;
27833;SDS011;15200;50.570;7.244;2023-06-26T10:46:14;4.60;;;1.82;;
27833;SDS011;15200;50.570;7.244;2023-06-26T10:49:15;4.22;;;1.87;;
27833;SDS011;15200;50.570;7.244;2023-06-26T10:51:17;4.03;;;1.62;;
27833;SDS011;15200;50.570;7.244;2023-06-26T10:53:49;4.65;;;1.92;;
27833;SDS011;15200;50.570;7.244;2023-06-26T10:56:14;2.60;;;1.57;;
27833;SDS011;15200;50.570;7.244;2023-06-26T10:58:42;3.70;;;1.47;;
27833;SDS011;15200;50.570;7.244;2023-06-26T11:03:40;4.62;;;1.50;;
27833;SDS011;15200;50.570;7.244;2023-06-26T11:06:15;2.60;;;1.57;;
27833;SDS011;15200;50.570;7.244;2023-06-26T11:08:46;6.28;;;1.70;;
27833;SDS011;15200;50.570;7.244;2023-06-26T11:11:13;7.12;;;1.67;;
27833;SDS011;15200;50.570;7.244;2023-06-26T11:13:41;3.65;;;1.55;;
27833;SDS011;15200;50.570;7.244;2023-06-26T11:16:08;3.62;;;1.62;;
27833;SDS011;15200;50.570;7.244;2023-06-26T11:18:35;2.25;;;1.37;;
27833;SDS011;15200;50.570;7.244;2023-06-26T11:21:09;5.65;;;1.45;;
27833;SDS011;15200;50.570;7.244;2023-06-26T11:23:38;5.25;;;1.30;;
27833;SDS011;15200;50.570;7.244;2023-06-26T11:26:12;1.90;;;1.10;;
27833;SDS011;15200;50.570;7.244;2023-06-26T11:28:45;2.98;;;1.30;;
27833;SDS011;15200;50.570;7.244;2023-06-26T11:31:20;5.53;;;1.25;;
27833;SDS011;15200;50.570;7.244;2023-06-26T11:33:38;3.58;;;1.52;;
27833;SDS011;15200;50.570;7.244;2023-06-26T11:36:08;3.80;;;1.70;;
27833;SDS011;15200;50.570;7.244;2023-06-26T11:38:38;5.65;;;1.50;;
27833;SDS011;15200;50.570;7.244;2023-06-26T11:41:06;6.17;;;1.60;;
27833;SDS011;15200;50.570;7.244;2023-06-26T11:43:34;2.92;;;1.52;;
27833;SDS011;15200;50.570;7.244;2023-06-26T11:46:01;2.77;;;1.30;;
27833;SDS011;15200;50.570;7.244;2023-06-26T11:48:30;8.45;;;1.37;;
27833;SDS011;15200;50.570;7.244;2023-06-26T11:50:57;7.83;;;1.98;;
27833;SDS011;15200;50.570;7.244;2023-06-26T11:53:24;6.03;;;1.67;;
27833;SDS011;15200;50.570;7.244;2023-06-26T11:55:52;2.08;;;1.17;;
27833;SDS011;15200;50.570;7.244;2023-06-26T11:58:19;3.22;;;1.40;;
27833;SDS011;15200;50.570;7.244;2023-06-26T12:00:47;2.52;;;1.00;;
27833;SDS011;15200;50.570;7.244;2023-06-26T12:03:14;6.10;;;1.32;;
27833;SDS011;15200;50.570;7.244;2023-06-26T12:05:42;4.05;;;1.80;;
27833;SDS011;15200;50.570;7.244;2023-06-26T12:08:11;5.12;;;1.45;;
27833;SDS011;15200;50.570;7.244;2023-06-26T12:10:38;8.55;;;1.62;;
27833;SDS011;15200;50.570;7.244;2023-06-26T12:13:07;4.95;;;1.60;;
27833;SDS011;15200;50.570;7.244;2023-06-26T12:15:34;6.53;;;1.37;;
27833;SDS011;15200;50.570;7.244;2023-06-26T12:18:07;6.33;;;1.45;;
27833;SDS011;15200;50.570;7.244;2023-06-26T12:20:30;6.20;;;1.70;;
27833;SDS011;15200;50.570;7.244;2023-06-26T12:22:58;6.60;;;1.52;;
27833;SDS011;15200;50.570;7.244;2023-06-26T12:25:26;4.22;;;1.35;;
27833;SDS011;15200;50.570;7.244;2023-06-26T12:27:53;4.35;;;1.30;;
27833;SDS011;15200;50.570;7.244;2023-06-26T12:30:20;2.95;;;1.55;;
27833;SDS011;15200;50.570;7.244;2023-06-26T12:32:48;9.60;;;1.70;;
27833;SDS011;15200;50.570;7.244;2023-06-26T12:35:15;9.58;;;2.08;;
27833;SDS011;15200;50.570;7.244;2023-06-26T12:37:43;109.50;;;14.55;;
27833;SDS011;15200;50.570;7.244;2023-06-26T12:40:18;7.20;;;1.80;;
27833;SDS011;15200;50.570;7.244;2023-06-26T12:42:45;5.05;;;1.72;;
27833;SDS011;15200;50.570;7.244;2023-06-26T12:45:13;3.80;;;1.32;;
27833;SDS011;15200;50.570;7.244;2023-06-26T12:47:40;3.95;;;1.50;;
27833;SDS011;15200;50.570;7.244;2023-06-26T12:50:08;8.18;;;1.27;;
27833;SDS011;15200;50.570;7.244;2023-06-26T12:52:35;3.27;;;1.20;;
27833;SDS011;15200;50.570;7.244;2023-06-26T12:55:03;4.50;;;1.47;;
27833;SDS011;15200;50.570;7.244;2023-06-26T12:57:33;3.52;;;1.32;;
27833;SDS011;15200;50.570;7.244;2023-06-26T13:00:00;7.62;;;1.60;;
27833;SDS011;15200;50.570;7.244;2023-06-26T13:02:28;8.78;;;1.77;;
27833;SDS011;15200;50.570;7.244;2023-06-26T13:04:56;4.85;;;1.25;;
27833;SDS011;15200;50.570;7.244;2023-06-26T13:07:23;7.10;;;1.35;;
27833;SDS011;15200;50.570;7.244;2023-06-26T13:09:51;2.72;;;1.40;;
27833;SDS011;15200;50.570;7.244;2023-06-26T13:12:19;6.75;;;1.50;;
27833;SDS011;15200;50.570;7.244;2023-06-26T13:14:46;3.92;;;1.62;;
27833;SDS011;15200;50.570;7.244;2023-06-26T13:17:14;3.02;;;1.42;;
27833;SDS011;15200;50.570;7.244;2023-06-26T13:19:41;5.30;;;1.40;;
27833;SDS011;15200;50.570;7.244;2023-06-26T13:22:09;1.92;;;1.20;;
27833;SDS011;15200;50.570;7.244;2023-06-26T13:24:37;4.75;;;1.67;;
27833;SDS011;15200;50.570;7.244;2023-06-26T13:27:04;6.33;;;1.55;;
27833;SDS011;15200;50.570;7.244;2023-06-26T13:29:31;7.72;;;1.65;;
27833;SDS011;15200;50.570;7.244;2023-06-26T13:31:59;3.12;;;1.52;;
27833;SDS011;15200;50.570;7.244;2023-06-26T13:34:27;2.60;;;1.30;;
27833;SDS011;15200;50.570;7.244;2023-06-26T13:36:55;5.12;;;1.60;;
27833;SDS011;15200;50.570;7.244;2023-06-26T13:39:23;2.90;;;1.62;;
27833;SDS011;15200;50.570;7.244;2023-06-26T13:41:50;2.15;;;1.22;;
27833;SDS011;15200;50.570;7.244;2023-06-26T13:44:17;1.65;;;1.37;;
27833;SDS011;15200;50.570;7.244;2023-06-26T13:46:45;2.65;;;1.77;;
27833;SDS011;15200;50.570;7.244;2023-06-26T13:49:12;6.10;;;1.60;;
27833;SDS011;15200;50.570;7.244;2023-06-26T13:51:39;3.37;;;1.60;;
27833;SDS011;15200;50.570;7.244;2023-06-26T13:54:08;6.87;;;1.50;;
27833;SDS011;15200;50.570;7.244;2023-06-26T13:56:36;5.10;;;1.62;;
27833;SDS011;15200;50.570;7.244;2023-06-26T13:59:05;5.50;;;1.62;;
27833;SDS011;15200;50.570;7.244;2023-06-26T14:01:32;3.47;;;1.30;;
27833;SDS011;15200;50.570;7.244;2023-06-26T14:03:59;4.97;;;1.50;;
27833;SDS011;15200;50.570;7.244;2023-06-26T14:06:27;3.67;;;1.40;;
27833;SDS011;15200;50.570;7.244;2023-06-26T14:08:54;5.35;;;1.37;;
27833;SDS011;15200;50.570;7.244;2023-06-26T14:11:21;3.77;;;1.35;;
27833;SDS011;15200;50.570;7.244;2023-06-26T14:13:49;3.80;;;1.12;;
27833;SDS011;15200;50.570;7.244;2023-06-26T14:16:16;4.53;;;1.30;;
27833;SDS011;15200;50.570;7.244;2023-06-26T14:18:45;2.30;;;1.05;;
27833;SDS011;15200;50.570;7.244;2023-06-26T14:21:12;2.55;;;1.02;;
27833;SDS011;15200;50.570;7.244;2023-06-26T14:23:39;6.75;;;1.27;;
27833;SDS011;15200;50.570;7.244;2023-06-26T14:26:07;5.28;;;1.80;;
27833;SDS011;15200;50.570;7.244;2023-06-26T14:28:34;4.42;;;1.62;;
27833;SDS011;15200;50.570;7.244;2023-06-26T14:31:01;4.15;;;1.12;;
27833;SDS011;15200;50.570;7.244;2023-06-26T14:33:28;6.20;;;1.40;;
27833;SDS011;15200;50.570;7.244;2023-06-26T14:35:56;2.95;;;1.20;;
27833;SDS011;15200;50.570;7.244;2023-06-26T14:38:23;2.50;;;1.10;;
27833;SDS011;15200;50.570;7.244;2023-06-26T14:40:50;3.58;;;1.10;;
27833;SDS011;15200;50.570;7.244;2023-06-26T14:43:18;3.77;;;1.35;;
27833;SDS011;15200;50.570;7.244;2023-06-26T14:45:45;5.22;;;1.77;;
27833;SDS011;15200;50.570;7.244;2023-06-26T14:48:12;3.60;;;1.30;;
27833;SDS011;15200;50.570;7.244;2023-06-26T14:50:40;2.70;;;1.25;;
27833;SDS011;15200;50.570;7.244;2023-06-26T14:53:07;3.35;;;1.47;;